Eva, Tennessee
Current Conditions -  °F | °C
As of 8:35 AM on Sunday 23 Nov 2014 (Local Time) from KPHT Reporting Station
Overcast Overcast  
Wind Chill: 54°   Ceiling: 1700
Heat Index: 54°   Visibility: 10mi
Dew Point: 48°   Wind: 12mph
Humidity: 82%   Direction: 130°SE
Pressure: 29.78"   Gusts: NA
Location:  36.06°N, 88°W
Report Text: KPHT 231435Z AUTO 13010KT 10SM OVC017 12/09 A2978 RMK
Loading
Personal Weather Stations






























Interactive Weather Map New forecast layout! Learn more

10-Day Weather Forecast

Advertisements
Track Severe Weather on mobile